sensor_id;sensor_type;location;lat;lon;timestamp;P1;P2;P0
27143;PMS1003;14672;50.250;8.312;2024-03-02T00:01:05;29.75;25.75;12.25
27143;PMS1003;14672;50.250;8.312;2024-03-02T00:03:31;29.25;26.50;15.25
27143;PMS1003;14672;50.250;8.312;2024-03-02T00:05:57;34.00;31.00;15.00
27143;PMS1003;14672;50.250;8.312;2024-03-02T00:08:24;29.33;26.00;15.00
27143;PMS1003;14672;50.250;8.312;2024-03-02T00:11:00;34.25;33.25;15.00
27143;PMS1003;14672;50.250;8.312;2024-03-02T00:13:28;31.50;28.75;14.25
27143;PMS1003;14672;50.250;8.312;2024-03-02T00:15:55;37.25;30.25;15.75
27143;PMS1003;14672;50.250;8.312;2024-03-02T00:18:32;34.50;30.50;15.00
27143;PMS1003;14672;50.250;8.312;2024-03-02T00:21:01;42.25;34.75;17.25
27143;PMS1003;14672;50.250;8.312;2024-03-02T00:23:31;34.50;34.25;16.25
27143;PMS1003;14672;50.250;8.312;2024-03-02T00:25:58;38.25;34.25;16.50
27143;PMS1003;14672;50.250;8.312;2024-03-02T00:33:51;32.25;30.25;15.50
27143;PMS1003;14672;50.250;8.312;2024-03-02T00:36:22;39.75;31.00;16.00
27143;PMS1003;14672;50.250;8.312;2024-03-02T00:38:51;37.50;33.00;15.25
27143;PMS1003;14672;50.250;8.312;2024-03-02T00:43:59;33.75;30.75;15.75
27143;PMS1003;14672;50.250;8.312;2024-03-02T00:46:37;34.00;32.25;16.75
27143;PMS1003;14672;50.250;8.312;2024-03-02T00:49:12;36.50;32.75;15.25
27143;PMS1003;14672;50.250;8.312;2024-03-02T00:51:50;26.50;25.00;13.25
27143;PMS1003;14672;50.250;8.312;2024-03-02T00:54:22;34.25;33.75;18.25
27143;PMS1003;14672;50.250;8.312;2024-03-02T00:56:51;33.00;29.50;14.00
27143;PMS1003;14672;50.250;8.312;2024-03-02T00:59:21;33.25;29.25;14.75
27143;PMS1003;14672;50.250;8.312;2024-03-02T01:01:48;28.00;28.00;16.00
27143;PMS1003;14672;50.250;8.312;2024-03-02T01:04:15;29.75;27.50;14.75
27143;PMS1003;14672;50.250;8.312;2024-03-02T01:06:42;34.25;29.75;14.00
27143;PMS1003;14672;50.250;8.312;2024-03-02T01:09:08;37.00;30.75;15.25
27143;PMS1003;14672;50.250;8.312;2024-03-02T01:11:34;37.33;33.33;16.67
27143;PMS1003;14672;50.250;8.312;2024-03-02T01:14:00;37.33;33.67;13.33
27143;PMS1003;14672;50.250;8.312;2024-03-02T01:16:26;35.67;30.67;16.67
27143;PMS1003;14672;50.250;8.312;2024-03-02T01:18:51;36.00;33.33;18.67
27143;PMS1003;14672;50.250;8.312;2024-03-02T01:21:17;33.00;33.00;13.00
27143;PMS1003;14672;50.250;8.312;2024-03-02T01:23:43;36.00;36.00;17.50
27143;PMS1003;14672;50.250;8.312;2024-03-02T01:26:09;31.67;29.33;14.00
27143;PMS1003;14672;50.250;8.312;2024-03-02T01:28:35;43.67;40.67;19.33
27143;PMS1003;14672;50.250;8.312;2024-03-02T01:31:00;39.67;32.33;15.00
27143;PMS1003;14672;50.250;8.312;2024-03-02T01:33:27;33.25;28.50;16.25
27143;PMS1003;14672;50.250;8.312;2024-03-02T01:35:52;44.67;39.67;20.67
27143;PMS1003;14672;50.250;8.312;2024-03-02T01:38:18;37.67;34.67;17.00
27143;PMS1003;14672;50.250;8.312;2024-03-02T01:40:44;37.25;35.25;19.25
27143;PMS1003;14672;50.250;8.312;2024-03-02T01:43:10;41.67;36.33;16.67
27143;PMS1003;14672;50.250;8.312;2024-03-02T01:45:36;30.25;29.75;18.75
27143;PMS1003;14672;50.250;8.312;2024-03-02T01:48:03;38.67;35.33;19.00
27143;PMS1003;14672;50.250;8.312;2024-03-02T01:50:32;43.75;38.75;17.75
27143;PMS1003;14672;50.250;8.312;2024-03-02T01:52:59;45.50;36.75;18.75
27143;PMS1003;14672;50.250;8.312;2024-03-02T01:55:27;39.00;36.00;15.25
27143;PMS1003;14672;50.250;8.312;2024-03-02T01:57:55;44.00;35.50;16.75
27143;PMS1003;14672;50.250;8.312;2024-03-02T02:00:21;37.75;36.00;17.75
27143;PMS1003;14672;50.250;8.312;2024-03-02T02:02:49;43.50;37.50;20.00
27143;PMS1003;14672;50.250;8.312;2024-03-02T02:05:17;37.75;33.75;17.00
27143;PMS1003;14672;50.250;8.312;2024-03-02T02:07:43;36.75;35.00;18.25
27143;PMS1003;14672;50.250;8.312;2024-03-02T02:10:12;39.75;35.50;19.00
27143;PMS1003;14672;50.250;8.312;2024-03-02T02:12:40;44.50;38.50;19.00
27143;PMS1003;14672;50.250;8.312;2024-03-02T02:17:54;33.50;31.00;14.50
27143;PMS1003;14672;50.250;8.312;2024-03-02T02:20:21;41.25;33.50;16.75
27143;PMS1003;14672;50.250;8.312;2024-03-02T02:22:57;35.25;32.50;18.00
27143;PMS1003;14672;50.250;8.312;2024-03-02T02:25:23;31.50;28.00;13.00
27143;PMS1003;14672;50.250;8.312;2024-03-02T02:27:49;35.50;31.75;17.25
27143;PMS1003;14672;50.250;8.312;2024-03-02T02:30:19;35.33;32.00;15.00
27143;PMS1003;14672;50.250;8.312;2024-03-02T02:32:48;36.25;34.00;18.00
27143;PMS1003;14672;50.250;8.312;2024-03-02T02:35:15;43.25;31.00;16.00
27143;PMS1003;14672;50.250;8.312;2024-03-02T02:37:41;32.25;30.50;18.00
27143;PMS1003;14672;50.250;8.312;2024-03-02T02:40:10;38.00;34.00;15.00
27143;PMS1003;14672;50.250;8.312;2024-03-02T02:42:40;40.75;27.00;13.00
27143;PMS1003;14672;50.250;8.312;2024-03-02T02:45:06;38.00;34.00;17.00
27143;PMS1003;14672;50.250;8.312;2024-03-02T02:47:32;36.50;31.75;14.50
27143;PMS1003;14672;50.250;8.312;2024-03-02T02:50:02;33.50;31.75;13.50
27143;PMS1003;14672;50.250;8.312;2024-03-02T02:52:32;33.25;31.75;15.25
27143;PMS1003;14672;50.250;8.312;2024-03-02T02:55:02;36.75;35.75;16.50
27143;PMS1003;14672;50.250;8.312;2024-03-02T02:57:29;27.25;25.25;12.00
27143;PMS1003;14672;50.250;8.312;2024-03-02T03:00:00;33.25;30.75;15.00
27143;PMS1003;14672;50.250;8.312;2024-03-02T03:02:40;31.25;30.75;13.50
27143;PMS1003;14672;50.250;8.312;2024-03-02T03:05:11;30.50;28.25;15.00
27143;PMS1003;14672;50.250;8.312;2024-03-02T03:07:39;31.50;29.75;15.00
27143;PMS1003;14672;50.250;8.312;2024-03-02T03:10:06;37.50;31.25;14.75
27143;PMS1003;14672;50.250;8.312;2024-03-02T03:12:33;33.75;31.75;15.00
27143;PMS1003;14672;50.250;8.312;2024-03-02T03:15:00;30.25;27.00;14.50
27143;PMS1003;14672;50.250;8.312;2024-03-02T03:17:26;30.67;27.33;15.00
27143;PMS1003;14672;50.250;8.312;2024-03-02T03:19:54;30.75;30.00;13.00
27143;PMS1003;14672;50.250;8.312;2024-03-02T03:22:20;40.33;35.33;16.33
27143;PMS1003;14672;50.250;8.312;2024-03-02T03:24:46;26.33;26.33;15.00
27143;PMS1003;14672;50.250;8.312;2024-03-02T03:27:12;30.33;27.00;14.33
27143;PMS1003;14672;50.250;8.312;2024-03-02T03:29:37;26.67;24.67;11.00
27143;PMS1003;14672;50.250;8.312;2024-03-02T03:32:03;27.33;24.67;12.33
27143;PMS1003;14672;50.250;8.312;2024-03-02T03:34:34;29.00;26.75;13.00
27143;PMS1003;14672;50.250;8.312;2024-03-02T03:37:00;29.50;27.25;13.00
27143;PMS1003;14672;50.250;8.312;2024-03-02T03:39:26;32.75;30.75;13.00
27143;PMS1003;14672;50.250;8.312;2024-03-02T03:41:52;31.00;26.33;15.33
27143;PMS1003;14672;50.250;8.312;2024-03-02T03:44:17;28.67;25.33;13.00
27143;PMS1003;14672;50.250;8.312;2024-03-02T03:46:44;30.00;28.00;12.50
27143;PMS1003;14672;50.250;8.312;2024-03-02T03:49:09;35.00;28.00;13.00
27143;PMS1003;14672;50.250;8.312;2024-03-02T03:51:35;31.00;25.67;11.67
27143;PMS1003;14672;50.250;8.312;2024-03-02T03:54:01;26.67;22.00;12.33
27143;PMS1003;14672;50.250;8.312;2024-03-02T03:56:27;29.67;27.67;13.67
27143;PMS1003;14672;50.250;8.312;2024-03-02T03:58:53;27.67;26.33;13.00
27143;PMS1003;14672;50.250;8.312;2024-03-02T04:01:18;21.67;21.00;11.67
27143;PMS1003;14672;50.250;8.312;2024-03-02T04:03:44;24.33;23.00;11.00
27143;PMS1003;14672;50.250;8.312;2024-03-02T04:06:10;27.00;25.33;13.00
27143;PMS1003;14672;50.250;8.312;2024-03-02T04:08:36;37.67;29.67;11.67
27143;PMS1003;14672;50.250;8.312;2024-03-02T04:11:01;22.00;20.67;11.00
27143;PMS1003;14672;50.250;8.312;2024-03-02T04:13:28;28.00;25.75;11.00
27143;PMS1003;14672;50.250;8.312;2024-03-02T04:15:53;32.33;29.33;13.33
27143;PMS1003;14672;50.250;8.312;2024-03-02T04:18:19;25.00;23.00;11.67
27143;PMS1003;14672;50.250;8.312;2024-03-02T04:20:45;28.00;25.67;11.67
27143;PMS1003;14672;50.250;8.312;2024-03-02T04:23:10;28.67;26.00;13.00
27143;PMS1003;14672;50.250;8.312;2024-03-02T04:25:36;25.67;23.67;11.00
27143;PMS1003;14672;50.250;8.312;2024-03-02T04:28:02;32.00;29.67;13.00
27143;PMS1003;14672;50.250;8.312;2024-03-02T04:30:28;28.33;25.33;13.67
27143;PMS1003;14672;50.250;8.312;2024-03-02T04:32:54;32.67;28.67;14.00
27143;PMS1003;14672;50.250;8.312;2024-03-02T04:35:20;27.33;26.00;13.00
27143;PMS1003;14672;50.250;8.312;2024-03-02T04:37:46;28.50;24.50;13.25
27143;PMS1003;14672;50.250;8.312;2024-03-02T04:40:12;34.33;22.33;9.67
27143;PMS1003;14672;50.250;8.312;2024-03-02T04:42:38;31.33;30.00;13.00
27143;PMS1003;14672;50.250;8.312;2024-03-02T04:45:03;27.00;23.33;9.00
27143;PMS1003;14672;50.250;8.312;2024-03-02T04:47:30;24.00;24.00;12.50
27143;PMS1003;14672;50.250;8.312;2024-03-02T04:49:55;23.33;23.33;12.33
27143;PMS1003;14672;50.250;8.312;2024-03-02T04:52:21;28.00;26.33;13.00
27143;PMS1003;14672;50.250;8.312;2024-03-02T04:54:46;25.00;23.33;13.00
27143;PMS1003;14672;50.250;8.312;2024-03-02T04:57:31;33.25;28.00;13.00
27143;PMS1003;14672;50.250;8.312;2024-03-02T04:59:57;29.33;22.67;11.00
27143;PMS1003;14672;50.250;8.312;2024-03-02T05:02:22;25.67;23.67;13.00
27143;PMS1003;14672;50.250;8.312;2024-03-02T05:04:48;32.33;29.33;13.00
27143;PMS1003;14672;50.250;8.312;2024-03-02T05:07:14;25.00;23.00;9.00
27143;PMS1003;14672;50.250;8.312;2024-03-02T05:09:40;30.00;28.00;15.00
27143;PMS1003;14672;50.250;8.312;2024-03-02T05:12:06;25.33;23.00;11.00
27143;PMS1003;14672;50.250;8.312;2024-03-02T05:14:54;21.75;20.25;9.00
27143;PMS1003;14672;50.250;8.312;2024-03-02T05:17:21;32.25;29.25;13.00
27143;PMS1003;14672;50.250;8.312;2024-03-02T05:19:46;30.67;28.00;11.00
27143;PMS1003;14672;50.250;8.312;2024-03-02T05:22:13;30.00;25.00;11.00
27143;PMS1003;14672;50.250;8.312;2024-03-02T05:24:38;33.33;30.00;13.67
27143;PMS1003;14672;50.250;8.312;2024-03-02T05:27:04;33.67;27.67;9.67
27143;PMS1003;14672;50.250;8.312;2024-03-02T05:29:31;30.75;27.75;13.50
27143;PMS1003;14672;50.250;8.312;2024-03-02T05:31:57;31.33;29.67;11.00
27143;PMS1003;14672;50.250;8.312;2024-03-02T05:34:23;26.75;22.25;11.50
27143;PMS1003;14672;50.250;8.312;2024-03-02T05:36:48;25.67;25.67;11.00
27143;PMS1003;14672;50.250;8.312;2024-03-02T05:39:14;27.67;26.00;11.00
27143;PMS1003;14672;50.250;8.312;2024-03-02T05:41:40;32.25;22.75;9.50
27143;PMS1003;14672;50.250;8.312;2024-03-02T05:44:06;33.33;31.67;15.00
27143;PMS1003;14672;50.250;8.312;2024-03-02T05:46:32;31.67;30.33;12.33
27143;PMS1003;14672;50.250;8.312;2024-03-02T05:48:59;30.67;30.00;11.00
27143;PMS1003;14672;50.250;8.312;2024-03-02T05:51:25;34.25;32.25;14.50
27143;PMS1003;14672;50.250;8.312;2024-03-02T05:53:51;29.67;25.67;11.00
27143;PMS1003;14672;50.250;8.312;2024-03-02T05:56:17;24.33;23.67;11.00
27143;PMS1003;14672;50.250;8.312;2024-03-02T05:58:42;34.33;27.00;13.00
27143;PMS1003;14672;50.250;8.312;2024-03-02T06:01:27;27.25;27.25;13.00
27143;PMS1003;14672;50.250;8.312;2024-03-02T06:03:56;30.75;25.75;11.00
27143;PMS1003;14672;50.250;8.312;2024-03-02T06:06:23;26.25;26.25;13.00
27143;PMS1003;14672;50.250;8.312;2024-03-02T06:08:50;29.75;29.75;14.50
27143;PMS1003;14672;50.250;8.312;2024-03-02T06:11:16;31.00;29.75;15.25
27143;PMS1003;14672;50.250;8.312;2024-03-02T06:13:44;36.25;30.50;15.75
27143;PMS1003;14672;50.250;8.312;2024-03-02T06:16:09;36.67;34.33;16.00
27143;PMS1003;14672;50.250;8.312;2024-03-02T06:18:35;36.67;30.67;17.00
27143;PMS1003;14672;50.250;8.312;2024-03-02T06:21:04;31.75;28.50;14.50
27143;PMS1003;14672;50.250;8.312;2024-03-02T06:23:29;29.67;24.00;10.33
27143;PMS1003;14672;50.250;8.312;2024-03-02T06:25:55;35.00;33.00;16.00
27143;PMS1003;14672;50.250;8.312;2024-03-02T06:28:21;31.67;28.33;13.33
27143;PMS1003;14672;50.250;8.312;2024-03-02T06:30:46;29.00;29.00;15.33
27143;PMS1003;14672;50.250;8.312;2024-03-02T06:33:12;30.33;28.00;14.33
27143;PMS1003;14672;50.250;8.312;2024-03-02T06:35:38;30.00;28.00;14.33
27143;PMS1003;14672;50.250;8.312;2024-03-02T06:38:04;32.00;29.00;15.25
27143;PMS1003;14672;50.250;8.312;2024-03-02T06:40:30;28.33;25.67;11.00
27143;PMS1003;14672;50.250;8.312;2024-03-02T06:42:55;34.00;30.33;13.33
27143;PMS1003;14672;50.250;8.312;2024-03-02T06:45:21;34.33;30.67;15.67
27143;PMS1003;14672;50.250;8.312;2024-03-02T06:47:47;26.33;24.67;13.00
27143;PMS1003;14672;50.250;8.312;2024-03-02T06:50:12;26.67;23.00;13.00
27143;PMS1003;14672;50.250;8.312;2024-03-02T06:52:38;26.00;25.00;13.00
27143;PMS1003;14672;50.250;8.312;2024-03-02T06:55:04;30.00;28.00;13.67
27143;PMS1003;14672;50.250;8.312;2024-03-02T06:57:31;34.75;34.75;18.75
27143;PMS1003;14672;50.250;8.312;2024-03-02T06:59:56;33.00;31.33;15.33
27143;PMS1003;14672;50.250;8.312;2024-03-02T07:02:24;34.50;31.00;17.00
27143;PMS1003;14672;50.250;8.312;2024-03-02T07:04:53;38.00;33.75;18.25
27143;PMS1003;14672;50.250;8.312;2024-03-02T07:07:19;40.25;33.25;14.50
27143;PMS1003;14672;50.250;8.312;2024-03-02T07:09:45;28.25;27.00;14.00
27143;PMS1003;14672;50.250;8.312;2024-03-02T07:12:11;31.50;30.75;15.25
27143;PMS1003;14672;50.250;8.312;2024-03-02T07:14:37;28.33;27.00;14.00
27143;PMS1003;14672;50.250;8.312;2024-03-02T07:17:21;31.75;28.25;13.25
27143;PMS1003;14672;50.250;8.312;2024-03-02T07:19:47;28.75;27.00;15.00
27143;PMS1003;14672;50.250;8.312;2024-03-02T07:22:13;32.00;30.00;15.00
27143;PMS1003;14672;50.250;8.312;2024-03-02T07:24:42;28.00;26.67;13.00
27143;PMS1003;14672;50.250;8.312;2024-03-02T07:27:10;34.00;30.50;16.75
27143;PMS1003;14672;50.250;8.312;2024-03-02T07:29:37;36.50;34.00;16.75
27143;PMS1003;14672;50.250;8.312;2024-03-02T07:32:05;35.00;31.00;15.50
27143;PMS1003;14672;50.250;8.312;2024-03-02T07:34:32;33.00;28.00;17.25
27143;PMS1003;14672;50.250;8.312;2024-03-02T07:36:59;41.00;37.50;16.50
27143;PMS1003;14672;50.250;8.312;2024-03-02T07:39:25;29.25;28.75;15.75
27143;PMS1003;14672;50.250;8.312;2024-03-02T07:41:51;31.00;29.00;15.25
27143;PMS1003;14672;50.250;8.312;2024-03-02T07:44:17;30.00;28.75;13.25
27143;PMS1003;14672;50.250;8.312;2024-03-02T07:46:47;33.50;32.75;19.00
27143;PMS1003;14672;50.250;8.312;2024-03-02T07:49:16;32.25;31.75;16.00
27143;PMS1003;14672;50.250;8.312;2024-03-02T07:51:43;34.50;31.75;16.75
27143;PMS1003;14672;50.250;8.312;2024-03-02T07:54:09;32.33;27.33;15.00
27143;PMS1003;14672;50.250;8.312;2024-03-02T07:56:35;32.50;30.50;14.75
27143;PMS1003;14672;50.250;8.312;2024-03-02T07:59:02;40.00;30.00;14.33
27143;PMS1003;14672;50.250;8.312;2024-03-02T08:01:30;26.25;26.25;14.75
27143;PMS1003;14672;50.250;8.312;2024-03-02T08:04:00;27.75;25.50;13.50
27143;PMS1003;14672;50.250;8.312;2024-03-02T08:06:28;30.50;27.75;13.75
27143;PMS1003;14672;50.250;8.312;2024-03-02T08:08:55;31.00;29.75;13.75
27143;PMS1003;14672;50.250;8.312;2024-03-02T08:11:23;30.50;28.25;13.00
27143;PMS1003;14672;50.250;8.312;2024-03-02T08:13:49;26.50;24.75;13.00
27143;PMS1003;14672;50.250;8.312;2024-03-02T08:16:18;26.75;25.50;14.00
27143;PMS1003;14672;50.250;8.312;2024-03-02T08:18:47;29.75;26.25;11.75
27143;PMS1003;14672;50.250;8.312;2024-03-02T08:21:14;29.75;26.00;13.25
27143;PMS1003;14672;50.250;8.312;2024-03-02T08:23:40;34.25;28.50;14.25
27143;PMS1003;14672;50.250;8.312;2024-03-02T08:26:10;37.25;27.25;12.75
27143;PMS1003;14672;50.250;8.312;2024-03-02T08:28:36;31.25;28.75;10.75
27143;PMS1003;14672;50.250;8.312;2024-03-02T08:31:03;23.00;22.00;12.00
27143;PMS1003;14672;50.250;8.312;2024-03-02T08:33:29;26.00;24.67;12.00
27143;PMS1003;14672;50.250;8.312;2024-03-02T08:35:55;30.67;26.00;13.00
27143;PMS1003;14672;50.250;8.312;2024-03-02T08:38:22;22.75;21.00;10.50
27143;PMS1003;14672;50.250;8.312;2024-03-02T08:40:48;34.50;28.50;14.00
27143;PMS1003;14672;50.250;8.312;2024-03-02T08:43:15;31.75;27.00;14.50
27143;PMS1003;14672;50.250;8.312;2024-03-02T08:45:41;31.00;28.67;13.67
27143;PMS1003;14672;50.250;8.312;2024-03-02T08:48:07;29.00;25.33;14.00
27143;PMS1003;14672;50.250;8.312;2024-03-02T08:50:33;28.00;27.75;13.50
27143;PMS1003;14672;50.250;8.312;2024-03-02T08:53:03;29.25;25.75;14.00
27143;PMS1003;14672;50.250;8.312;2024-03-02T08:55:29;23.00;23.00;12.25
27143;PMS1003;14672;50.250;8.312;2024-03-02T08:57:55;22.67;21.33;10.67
27143;PMS1003;14672;50.250;8.312;2024-03-02T09:00:21;25.00;21.00;12.25
27143;PMS1003;14672;50.250;8.312;2024-03-02T09:02:48;29.00;27.75;14.75
27143;PMS1003;14672;50.250;8.312;2024-03-02T09:05:14;24.00;22.67;12.67
27143;PMS1003;14672;50.250;8.312;2024-03-02T09:07:40;25.50;25.25;14.00
27143;PMS1003;14672;50.250;8.312;2024-03-02T09:10:07;26.50;23.00;12.00
27143;PMS1003;14672;50.250;8.312;2024-03-02T09:12:34;32.00;30.00;14.00
27143;PMS1003;14672;50.250;8.312;2024-03-02T09:15:01;32.75;28.00;13.50
27143;PMS1003;14672;50.250;8.312;2024-03-02T09:17:34;25.75;23.25;12.50
27143;PMS1003;14672;50.250;8.312;2024-03-02T09:19:59;33.67;29.33;14.00
27143;PMS1003;14672;50.250;8.312;2024-03-02T09:22:25;27.67;27.00;14.00
27143;PMS1003;14672;50.250;8.312;2024-03-02T09:24:51;28.67;25.00;13.67
27143;PMS1003;14672;50.250;8.312;2024-03-02T09:27:17;27.67;27.00;14.00
27143;PMS1003;14672;50.250;8.312;2024-03-02T09:29:43;22.50;21.75;10.50
27143;PMS1003;14672;50.250;8.312;2024-03-02T09:32:11;28.33;26.33;12.00
27143;PMS1003;14672;50.250;8.312;2024-03-02T09:34:39;27.50;27.00;13.25
27143;PMS1003;14672;50.250;8.312;2024-03-02T09:37:05;27.50;23.75;12.00
27143;PMS1003;14672;50.250;8.312;2024-03-02T09:39:32;25.50;23.50;12.00
27143;PMS1003;14672;50.250;8.312;2024-03-02T09:41:58;29.75;23.25;12.00
27143;PMS1003;14672;50.250;8.312;2024-03-02T09:44:25;30.25;24.00;12.00
27143;PMS1003;14672;50.250;8.312;2024-03-02T09:46:51;27.25;25.25;13.00
27143;PMS1003;14672;50.250;8.312;2024-03-02T09:49:18;27.50;22.25;12.50
27143;PMS1003;14672;50.250;8.312;2024-03-02T09:51:47;25.33;23.33;12.00
27143;PMS1003;14672;50.250;8.312;2024-03-02T09:54:15;27.00;26.25;12.00
27143;PMS1003;14672;50.250;8.312;2024-03-02T09:56:41;28.75;27.00;11.00
27143;PMS1003;14672;50.250;8.312;2024-03-02T09:59:07;21.00;21.00;11.33
27143;PMS1003;14672;50.250;8.312;2024-03-02T10:01:36;21.75;21.25;11.50
27143;PMS1003;14672;50.250;8.312;2024-03-02T10:04:02;24.67;24.67;9.33
27143;PMS1003;14672;50.250;8.312;2024-03-02T10:06:29;21.50;20.00;10.50
27143;PMS1003;14672;50.250;8.312;2024-03-02T10:08:54;26.00;26.00;13.33
27143;PMS1003;14672;50.250;8.312;2024-03-02T10:11:28;18.50;18.50;11.50
27143;PMS1003;14672;50.250;8.312;2024-03-02T10:14:08;21.50;20.75;10.50
27143;PMS1003;14672;50.250;8.312;2024-03-02T10:16:40;24.25;22.25;10.00
27143;PMS1003;14672;50.250;8.312;2024-03-02T10:19:18;23.00;19.75;8.50
27143;PMS1003;14672;50.250;8.312;2024-03-02T10:21:45;25.00;22.25;10.50
27143;PMS1003;14672;50.250;8.312;2024-03-02T10:24:22;24.75;23.00;12.25
27143;PMS1003;14672;50.250;8.312;2024-03-02T10:26:48;26.00;24.00;10.00
27143;PMS1003;14672;50.250;8.312;2024-03-02T10:29:15;28.50;25.25;11.50
27143;PMS1003;14672;50.250;8.312;2024-03-02T10:31:41;24.75;23.25;11.75
27143;PMS1003;14672;50.250;8.312;2024-03-02T10:34:11;20.75;20.50;11.75
27143;PMS1003;14672;50.250;8.312;2024-03-02T10:36:40;24.50;20.75;12.00
27143;PMS1003;14672;50.250;8.312;2024-03-02T10:39:08;26.75;24.00;12.00
27143;PMS1003;14672;50.250;8.312;2024-03-02T10:41:35;24.25;22.25;9.75
27143;PMS1003;14672;50.250;8.312;2024-03-02T10:44:03;25.25;23.50;11.50
27143;PMS1003;14672;50.250;8.312;2024-03-02T10:46:32;26.50;24.00;11.75
27143;PMS1003;14672;50.250;8.312;2024-03-02T10:49:00;27.50;24.00;10.75
27143;PMS1003;14672;50.250;8.312;2024-03-02T10:51:29;23.50;22.00;11.00
27143;PMS1003;14672;50.250;8.312;2024-03-02T10:54:00;20.25;19.25;10.00
27143;PMS1003;14672;50.250;8.312;2024-03-02T10:56:38;23.25;20.00;8.00
27143;PMS1003;14672;50.250;8.312;2024-03-02T11:01:57;21.50;20.00;10.50
27143;PMS1003;14672;50.250;8.312;2024-03-02T11:04:25;22.00;18.75;7.50
27143;PMS1003;14672;50.250;8.312;2024-03-02T11:06:54;20.00;20.00;10.75
27143;PMS1003;14672;50.250;8.312;2024-03-02T11:09:35;21.25;19.75;10.25
27143;PMS1003;14672;50.250;8.312;2024-03-02T11:12:13;20.75;19.75;9.25
27143;PMS1003;14672;50.250;8.312;2024-03-02T11:14:47;25.75;22.75;11.50
27143;PMS1003;14672;50.250;8.312;2024-03-02T11:17:17;20.50;19.00;8.00
27143;PMS1003;14672;50.250;8.312;2024-03-02T11:19:43;18.50;18.25;9.25
27143;PMS1003;14672;50.250;8.312;2024-03-02T11:22:11;18.50;17.75;9.00
27143;PMS1003;14672;50.250;8.312;2024-03-02T11:24:38;19.00;18.75;8.50
27143;PMS1003;14672;50.250;8.312;2024-03-02T11:27:07;18.00;16.67;8.67
27143;PMS1003;14672;50.250;8.312;2024-03-02T11:32:03;16.25;15.25;7.50
27143;PMS1003;14672;50.250;8.312;2024-03-02T11:34:31;18.25;17.50;8.25
27143;PMS1003;14672;50.250;8.312;2024-03-02T11:37:03;15.75;15.75;8.00
27143;PMS1003;14672;50.250;8.312;2024-03-02T11:39:30;13.25;13.25;6.00
27143;PMS1003;14672;50.250;8.312;2024-03-02T11:41:57;14.50;14.50;7.00
27143;PMS1003;14672;50.250;8.312;2024-03-02T11:44:27;13.00;12.75;5.50
27143;PMS1003;14672;50.250;8.312;2024-03-02T11:47:02;17.25;16.00;6.00
27143;PMS1003;14672;50.250;8.312;2024-03-02T11:49:45;18.00;14.25;8.25
27143;PMS1003;14672;50.250;8.312;2024-03-02T11:52:16;15.00;13.75;6.00
27143;PMS1003;14672;50.250;8.312;2024-03-02T11:54:46;16.75;16.75;7.75
27143;PMS1003;14672;50.250;8.312;2024-03-02T11:57:16;11.25;11.25;4.00
27143;PMS1003;14672;50.250;8.312;2024-03-02T11:59:44;19.75;17.00;9.25
27143;PMS1003;14672;50.250;8.312;2024-03-02T12:02:20;15.00;14.50;6.00
27143;PMS1003;14672;50.250;8.312;2024-03-02T12:04:47;17.25;16.25;7.75
27143;PMS1003;14672;50.250;8.312;2024-03-02T12:07:21;16.00;16.00;7.75
27143;PMS1003;14672;50.250;8.312;2024-03-02T12:10:01;14.50;14.50;6.00
27143;PMS1003;14672;50.250;8.312;2024-03-02T12:12:28;21.00;17.75;9.50
27143;PMS1003;14672;50.250;8.312;2024-03-02T12:14:54;20.00;19.00;8.50
27143;PMS1003;14672;50.250;8.312;2024-03-02T12:17:21;10.25;9.75;4.50
27143;PMS1003;14672;50.250;8.312;2024-03-02T12:19:47;17.25;17.25;7.00
27143;PMS1003;14672;50.250;8.312;2024-03-02T12:22:13;25.25;20.50;9.00
27143;PMS1003;14672;50.250;8.312;2024-03-02T12:24:41;13.75;13.75;5.00
27143;PMS1003;14672;50.250;8.312;2024-03-02T12:27:10;16.75;16.75;8.50
27143;PMS1003;14672;50.250;8.312;2024-03-02T12:29:37;16.00;16.00;9.00
27143;PMS1003;14672;50.250;8.312;2024-03-02T12:32:04;11.00;11.00;6.00
27143;PMS1003;14672;50.250;8.312;2024-03-02T12:34:31;12.75;12.00;5.00
27143;PMS1003;14672;50.250;8.312;2024-03-02T12:36:58;12.25;12.25;4.00
27143;PMS1003;14672;50.250;8.312;2024-03-02T12:39:23;13.00;12.25;5.00
27143;PMS1003;14672;50.250;8.312;2024-03-02T12:41:50;14.00;13.67;5.00
27143;PMS1003;14672;50.250;8.312;2024-03-02T12:44:19;10.00;10.00;3.50
27143;PMS1003;14672;50.250;8.312;2024-03-02T12:46:45;10.75;10.00;4.75
27143;PMS1003;14672;50.250;8.312;2024-03-02T12:49:12;14.75;14.75;8.00
27143;PMS1003;14672;50.250;8.312;2024-03-02T12:51:43;11.00;11.00;4.75
27143;PMS1003;14672;50.250;8.312;2024-03-02T12:54:12;13.75;13.75;6.50
27143;PMS1003;14672;50.250;8.312;2024-03-02T12:56:38;12.33;11.00;4.67
27143;PMS1003;14672;50.250;8.312;2024-03-02T12:59:05;11.00;11.00;4.75
27143;PMS1003;14672;50.250;8.312;2024-03-02T13:01:31;8.67;8.67;4.00
27143;PMS1003;14672;50.250;8.312;2024-03-02T13:03:57;10.50;10.50;5.50
27143;PMS1003;14672;50.250;8.312;2024-03-02T13:06:24;10.50;10.25;3.50
27143;PMS1003;14672;50.250;8.312;2024-03-02T13:08:54;11.25;10.00;4.00
27143;PMS1003;14672;50.250;8.312;2024-03-02T13:11:20;11.33;9.67;3.33
27143;PMS1003;14672;50.250;8.312;2024-03-02T13:13:48;13.50;13.50;6.75
27143;PMS1003;14672;50.250;8.312;2024-03-02T13:16:14;12.00;11.25;4.00
27143;PMS1003;14672;50.250;8.312;2024-03-02T13:18:41;9.00;9.00;4.00
27143;PMS1003;14672;50.250;8.312;2024-03-02T13:21:09;12.75;11.25;4.00
27143;PMS1003;14672;50.250;8.312;2024-03-02T13:23:35;8.00;8.00;4.00
27143;PMS1003;14672;50.250;8.312;2024-03-02T13:26:01;8.00;8.00;2.00
27143;PMS1003;14672;50.250;8.312;2024-03-02T13:28:27;8.00;8.00;2.00
27143;PMS1003;14672;50.250;8.312;2024-03-02T13:30:53;6.75;6.75;2.00
27143;PMS1003;14672;50.250;8.312;2024-03-02T13:33:18;9.00;9.00;1.67
27143;PMS1003;14672;50.250;8.312;2024-03-02T13:35:51;8.00;7.50;2.00
27143;PMS1003;14672;50.250;8.312;2024-03-02T13:38:18;10.25;10.25;4.00
27143;PMS1003;14672;50.250;8.312;2024-03-02T13:40:45;11.50;10.75;5.00
27143;PMS1003;14672;50.250;8.312;2024-03-02T13:43:16;8.00;8.00;4.50
27143;PMS1003;14672;50.250;8.312;2024-03-02T13:45:42;10.00;10.00;5.00
27143;PMS1003;14672;50.250;8.312;2024-03-02T13:48:08;11.67;11.67;4.67
27143;PMS1003;14672;50.250;8.312;2024-03-02T13:50:34;9.67;9.67;4.00
27143;PMS1003;14672;50.250;8.312;2024-03-02T13:53:00;13.25;12.75;5.00
27143;PMS1003;14672;50.250;8.312;2024-03-02T13:55:26;8.75;8.75;4.00
27143;PMS1003;14672;50.250;8.312;2024-03-02T13:57:51;6.67;6.67;4.00
27143;PMS1003;14672;50.250;8.312;2024-03-02T14:00:17;12.67;12.33;5.00
27143;PMS1003;14672;50.250;8.312;2024-03-02T14:02:45;12.00;12.00;4.00
27143;PMS1003;14672;50.250;8.312;2024-03-02T14:05:11;12.00;12.00;5.00
27143;PMS1003;14672;50.250;8.312;2024-03-02T14:07:39;9.25;9.00;4.00